« Back
NWS Peachtree City, Ga » Text Product » AHN Terminal Aerodrome Forecast


Printer-friendly Version
Current Version              Previous Versions:   1  2  3  4  5  6  7  8  9  

Terminal Aerodrome Forecast

648
FTAK31 PAJN 252111 AAB
TAFAHN
TAF AMD
PAHN 252111Z 2521/2618 11012KT 3SM -RA BR SCT006 OVC015
      TEMPO 2521/2523 3SM -DZ BR OVC009
     FM261500 VRB04KT 2SM -SHRA BKN007 OVC015
      AMD LTD TO CLD VIS AND WIND=



USA.gov is the U.S. government's official web portal to all federal, state and local government web resources and services.